sensor_id;sensor_type;location;lat;lon;timestamp;pressure;altitude;pressure_sealevel;temperature;humidity
76694;BME280;69667;52.136;5.424;2024-03-02T00:01:39;99861.69;;;8.53;86.37
76694;BME280;69667;52.136;5.424;2024-03-02T00:04:08;99847.66;;;8.49;86.42
76694;BME280;69667;52.136;5.424;2024-03-02T00:06:37;99856.56;;;8.50;86.35
76694;BME280;69667;52.136;5.424;2024-03-02T00:09:05;99864.38;;;8.53;86.62
76694;BME280;69667;52.136;5.424;2024-03-02T00:11:35;99847.53;;;8.51;86.65
76694;BME280;69667;52.136;5.424;2024-03-02T00:14:04;99852.66;;;8.54;86.40
76694;BME280;69667;52.136;5.424;2024-03-02T00:16:33;99856.06;;;8.56;86.34
76694;BME280;69667;52.136;5.424;2024-03-02T00:19:05;99866.44;;;8.60;86.15
76694;BME280;69667;52.136;5.424;2024-03-02T00:21:33;99886.59;;;8.66;85.85
76694;BME280;69667;52.136;5.424;2024-03-02T00:26:51;99889.91;;;8.69;85.77
76694;BME280;69667;52.136;5.424;2024-03-02T00:29:20;99898.94;;;8.68;86.07
76694;BME280;69667;52.136;5.424;2024-03-02T00:31:50;99903.44;;;8.68;86.44
76694;BME280;69667;52.136;5.424;2024-03-02T00:34:20;99900.88;;;8.66;86.17
76694;BME280;69667;52.136;5.424;2024-03-02T00:36:49;99932.34;;;8.66;86.60
76694;BME280;69667;52.136;5.424;2024-03-02T00:39:18;99939.66;;;8.64;87.05
76694;BME280;69667;52.136;5.424;2024-03-02T00:41:47;99939.78;;;8.62;87.22
76694;BME280;69667;52.136;5.424;2024-03-02T00:44:16;99947.13;;;8.60;87.51
76694;BME280;69667;52.136;5.424;2024-03-02T00:46:47;99968.03;;;8.57;88.05
76694;BME280;69667;52.136;5.424;2024-03-02T00:49:23;99953.25;;;8.51;89.31
76694;BME280;69667;52.136;5.424;2024-03-02T00:51:55;99962.69;;;8.46;89.96
76694;BME280;69667;52.136;5.424;2024-03-02T00:54:27;99956.09;;;8.39;90.63
76694;BME280;69667;52.136;5.424;2024-03-02T00:56:56;99954.72;;;8.33;91.23
76694;BME280;69667;52.136;5.424;2024-03-02T00:59:30;99964.50;;;8.23;92.94
76694;BME280;69667;52.136;5.424;2024-03-02T01:01:59;99970.81;;;8.11;94.62
76694;BME280;69667;52.136;5.424;2024-03-02T01:04:28;99978.88;;;8.00;96.35
76694;BME280;69667;52.136;5.424;2024-03-02T01:06:58;99974.13;;;7.93;97.70
76694;BME280;69667;52.136;5.424;2024-03-02T01:09:26;99981.06;;;7.84;98.95
76694;BME280;69667;52.136;5.424;2024-03-02T01:11:54;99969.81;;;7.79;100.00
76694;BME280;69667;52.136;5.424;2024-03-02T01:14:23;99972.00;;;7.74;100.00
76694;BME280;69667;52.136;5.424;2024-03-02T01:16:51;99982.38;;;7.67;100.00
76694;BME280;69667;52.136;5.424;2024-03-02T01:19:21;99986.38;;;7.62;100.00
76694;BME280;69667;52.136;5.424;2024-03-02T01:21:49;99964.75;;;7.52;100.00
76694;BME280;69667;52.136;5.424;2024-03-02T01:24:18;99970.81;;;7.43;100.00
76694;BME280;69667;52.136;5.424;2024-03-02T01:26:46;99990.22;;;7.36;100.00
76694;BME280;69667;52.136;5.424;2024-03-02T01:29:14;99988.84;;;7.30;100.00
76694;BME280;69667;52.136;5.424;2024-03-02T01:31:43;99989.38;;;7.23;100.00
76694;BME280;69667;52.136;5.424;2024-03-02T01:34:12;99986.94;;;7.20;100.00
76694;BME280;69667;52.136;5.424;2024-03-02T01:36:40;99991.69;;;7.16;100.00
76694;BME280;69667;52.136;5.424;2024-03-02T01:39:11;99990.09;;;7.14;100.00
76694;BME280;69667;52.136;5.424;2024-03-02T01:41:50;99996.31;;;7.14;100.00
76694;BME280;69667;52.136;5.424;2024-03-02T01:44:18;99988.38;;;7.13;100.00
76694;BME280;69667;52.136;5.424;2024-03-02T01:46:46;99983.97;;;7.12;100.00
76694;BME280;69667;52.136;5.424;2024-03-02T01:49:15;99996.53;;;7.11;100.00
76694;BME280;69667;52.136;5.424;2024-03-02T01:51:43;100000.19;;;7.10;100.00
76694;BME280;69667;52.136;5.424;2024-03-02T01:54:12;99988.72;;;7.08;100.00
76694;BME280;69667;52.136;5.424;2024-03-02T01:56:40;99999.56;;;7.07;100.00
76694;BME280;69667;52.136;5.424;2024-03-02T01:59:09;99987.97;;;7.06;100.00
76694;BME280;69667;52.136;5.424;2024-03-02T02:01:40;99992.63;;;7.04;100.00
76694;BME280;69667;52.136;5.424;2024-03-02T02:04:08;99991.88;;;7.02;100.00
76694;BME280;69667;52.136;5.424;2024-03-02T02:06:36;99992.94;;;7.00;100.00
76694;BME280;69667;52.136;5.424;2024-03-02T02:09:06;99986.75;;;6.99;100.00
76694;BME280;69667;52.136;5.424;2024-03-02T02:11:35;99988.56;;;6.99;100.00
76694;BME280;69667;52.136;5.424;2024-03-02T02:14:03;99996.72;;;6.97;100.00
76694;BME280;69667;52.136;5.424;2024-03-02T02:16:53;100009.50;;;6.94;100.00
76694;BME280;69667;52.136;5.424;2024-03-02T02:19:21;100005.09;;;6.93;100.00
76694;BME280;69667;52.136;5.424;2024-03-02T02:21:49;99993.00;;;6.87;100.00
76694;BME280;69667;52.136;5.424;2024-03-02T02:24:18;100008.34;;;6.85;100.00
76694;BME280;69667;52.136;5.424;2024-03-02T02:26:46;100001.38;;;6.83;100.00
76694;BME280;69667;52.136;5.424;2024-03-02T02:29:14;99990.34;;;6.75;100.00
76694;BME280;69667;52.136;5.424;2024-03-02T02:31:42;99990.47;;;6.73;100.00
76694;BME280;69667;52.136;5.424;2024-03-02T02:34:11;99987.38;;;6.67;100.00
76694;BME280;69667;52.136;5.424;2024-03-02T02:36:39;99983.19;;;6.63;100.00
76694;BME280;69667;52.136;5.424;2024-03-02T02:39:12;99998.69;;;6.59;100.00
76694;BME280;69667;52.136;5.424;2024-03-02T02:41:41;100009.72;;;6.55;100.00
76694;BME280;69667;52.136;5.424;2024-03-02T02:44:11;100007.25;;;6.52;100.00
76694;BME280;69667;52.136;5.424;2024-03-02T02:46:41;100010.06;;;6.50;100.00
76694;BME280;69667;52.136;5.424;2024-03-02T02:49:11;100000.31;;;6.49;100.00
76694;BME280;69667;52.136;5.424;2024-03-02T02:52:05;100001.25;;;6.48;100.00
76694;BME280;69667;52.136;5.424;2024-03-02T02:54:36;100009.53;;;6.45;100.00
76694;BME280;69667;52.136;5.424;2024-03-02T02:57:05;100004.38;;;6.42;100.00
76694;BME280;69667;52.136;5.424;2024-03-02T02:59:35;100013.59;;;6.38;100.00
76694;BME280;69667;52.136;5.424;2024-03-02T03:02:04;100013.59;;;6.38;100.00
76694;BME280;69667;52.136;5.424;2024-03-02T03:04:32;100014.69;;;6.35;100.00
76694;BME280;69667;52.136;5.424;2024-03-02T03:07:00;100020.16;;;6.34;100.00
76694;BME280;69667;52.136;5.424;2024-03-02T03:09:29;100018.31;;;6.34;100.00
76694;BME280;69667;52.136;5.424;2024-03-02T03:11:57;100014.91;;;6.32;100.00
76694;BME280;69667;52.136;5.424;2024-03-02T03:14:25;100007.94;;;6.30;100.00
76694;BME280;69667;52.136;5.424;2024-03-02T03:16:54;100010.84;;;6.27;100.00
76694;BME280;69667;52.136;5.424;2024-03-02T03:19:22;100013.63;;;6.25;100.00
76694;BME280;69667;52.136;5.424;2024-03-02T03:21:51;100006.53;;;6.24;100.00
76694;BME280;69667;52.136;5.424;2024-03-02T03:24:21;100011.91;;;6.24;100.00
76694;BME280;69667;52.136;5.424;2024-03-02T03:27:13;100017.47;;;6.21;100.00
76694;BME280;69667;52.136;5.424;2024-03-02T03:29:45;100020.50;;;6.17;100.00
76694;BME280;69667;52.136;5.424;2024-03-02T03:32:17;100016.19;;;6.14;100.00
76694;BME280;69667;52.136;5.424;2024-03-02T03:34:46;100023.50;;;6.12;100.00
76694;BME280;69667;52.136;5.424;2024-03-02T03:37:15;100025.44;;;6.10;100.00
76694;BME280;69667;52.136;5.424;2024-03-02T03:39:43;100018.34;;;6.09;100.00
76694;BME280;69667;52.136;5.424;2024-03-02T03:42:17;100031.84;;;6.08;100.00
76694;BME280;69667;52.136;5.424;2024-03-02T03:44:46;100024.91;;;6.05;100.00
76694;BME280;69667;52.136;5.424;2024-03-02T03:47:14;100029.28;;;6.06;100.00
76694;BME280;69667;52.136;5.424;2024-03-02T03:49:42;100037.84;;;6.11;100.00
76694;BME280;69667;52.136;5.424;2024-03-02T03:52:11;100030.56;;;6.13;100.00
76694;BME280;69667;52.136;5.424;2024-03-02T03:54:39;100041.94;;;6.17;100.00
76694;BME280;69667;52.136;5.424;2024-03-02T03:57:11;100038.28;;;6.18;100.00
76694;BME280;69667;52.136;5.424;2024-03-02T03:59:39;100031.84;;;6.20;100.00
76694;BME280;69667;52.136;5.424;2024-03-02T04:02:27;100026.50;;;6.20;100.00
76694;BME280;69667;52.136;5.424;2024-03-02T04:04:56;100025.28;;;6.24;100.00
76694;BME280;69667;52.136;5.424;2024-03-02T04:07:24;100026.91;;;6.27;100.00
76694;BME280;69667;52.136;5.424;2024-03-02T04:09:53;100033.75;;;6.31;100.00
76694;BME280;69667;52.136;5.424;2024-03-02T04:12:24;100032.69;;;6.33;100.00
76694;BME280;69667;52.136;5.424;2024-03-02T04:14:52;100046.00;;;6.35;100.00
76694;BME280;69667;52.136;5.424;2024-03-02T04:17:23;100042.25;;;6.37;100.00
76694;BME280;69667;52.136;5.424;2024-03-02T04:19:51;100052.00;;;6.38;100.00
76694;BME280;69667;52.136;5.424;2024-03-02T04:22:20;100057.34;;;6.38;100.00
76694;BME280;69667;52.136;5.424;2024-03-02T04:24:52;100046.53;;;6.40;100.00
76694;BME280;69667;52.136;5.424;2024-03-02T04:27:22;100050.06;;;6.40;100.00
76694;BME280;69667;52.136;5.424;2024-03-02T04:29:51;100049.19;;;6.40;100.00
76694;BME280;69667;52.136;5.424;2024-03-02T04:32:20;100053.28;;;6.46;100.00
76694;BME280;69667;52.136;5.424;2024-03-02T04:34:48;100056.91;;;6.44;100.00
76694;BME280;69667;52.136;5.424;2024-03-02T04:37:34;100051.53;;;6.44;100.00
76694;BME280;69667;52.136;5.424;2024-03-02T04:40:02;100057.66;;;6.47;100.00
76694;BME280;69667;52.136;5.424;2024-03-02T04:42:31;100061.97;;;6.49;100.00
76694;BME280;69667;52.136;5.424;2024-03-02T04:45:00;100066.47;;;6.49;100.00
76694;BME280;69667;52.136;5.424;2024-03-02T04:47:28;100067.31;;;6.49;100.00
76694;BME280;69667;52.136;5.424;2024-03-02T04:49:56;100070.09;;;6.47;100.00
76694;BME280;69667;52.136;5.424;2024-03-02T04:52:24;100070.09;;;6.47;100.00
76694;BME280;69667;52.136;5.424;2024-03-02T04:54:54;100071.94;;;6.47;100.00
76694;BME280;69667;52.136;5.424;2024-03-02T04:57:52;100086.16;;;6.47;100.00
76694;BME280;69667;52.136;5.424;2024-03-02T05:00:23;100083.47;;;6.47;100.00
76694;BME280;69667;52.136;5.424;2024-03-02T05:02:52;100078.13;;;6.47;100.00
76694;BME280;69667;52.136;5.424;2024-03-02T05:05:42;100075.44;;;6.47;100.00
76694;BME280;69667;52.136;5.424;2024-03-02T05:08:10;100079.09;;;6.47;100.00
76694;BME280;69667;52.136;5.424;2024-03-02T05:10:39;100086.16;;;6.47;100.00
76694;BME280;69667;52.136;5.424;2024-03-02T05:13:07;100080.91;;;6.46;100.00
76694;BME280;69667;52.136;5.424;2024-03-02T05:15:36;100090.69;;;6.47;100.00
76694;BME280;69667;52.136;5.424;2024-03-02T05:18:04;100088.00;;;6.47;100.00
76694;BME280;69667;52.136;5.424;2024-03-02T05:20:32;100096.06;;;6.47;100.00
76694;BME280;69667;52.136;5.424;2024-03-02T05:23:01;100089.81;;;6.47;100.00
76694;BME280;69667;52.136;5.424;2024-03-02T05:25:30;100093.47;;;6.46;100.00
76694;BME280;69667;52.136;5.424;2024-03-02T05:27:59;100088.13;;;6.46;100.00
76694;BME280;69667;52.136;5.424;2024-03-02T05:30:27;100093.59;;;6.44;100.00
76694;BME280;69667;52.136;5.424;2024-03-02T05:32:56;100090.91;;;6.44;100.00
76694;BME280;69667;52.136;5.424;2024-03-02T05:35:24;100099.69;;;6.46;100.00
76694;BME280;69667;52.136;5.424;2024-03-02T05:37:52;100095.19;;;6.47;100.00
76694;BME280;69667;52.136;5.424;2024-03-02T05:40:22;100088.22;;;6.44;100.00
76694;BME280;69667;52.136;5.424;2024-03-02T05:42:51;100087.59;;;6.40;100.00
76694;BME280;69667;52.136;5.424;2024-03-02T05:45:23;100086.41;;;6.32;100.00
76694;BME280;69667;52.136;5.424;2024-03-02T05:47:54;100093.25;;;6.23;100.00
76694;BME280;69667;52.136;5.424;2024-03-02T05:50:22;100096.56;;;6.14;100.00
76694;BME280;69667;52.136;5.424;2024-03-02T05:52:51;100095.28;;;6.07;100.00
76694;BME280;69667;52.136;5.424;2024-03-02T05:55:21;100094.31;;;6.08;100.00
76694;BME280;69667;52.136;5.424;2024-03-02T05:57:49;100101.19;;;6.12;100.00
76694;BME280;69667;52.136;5.424;2024-03-02T06:00:41;100108.16;;;6.15;100.00
76694;BME280;69667;52.136;5.424;2024-03-02T06:03:10;100105.25;;;6.18;100.00
76694;BME280;69667;52.136;5.424;2024-03-02T06:05:38;100108.59;;;6.21;100.00
76694;BME280;69667;52.136;5.424;2024-03-02T06:08:06;100103.97;;;6.23;100.00
76694;BME280;69667;52.136;5.424;2024-03-02T06:10:34;100116.50;;;6.23;100.00
76694;BME280;69667;52.136;5.424;2024-03-02T06:13:03;100118.53;;;6.19;100.00
76694;BME280;69667;52.136;5.424;2024-03-02T06:15:31;100121.31;;;6.18;100.00
76694;BME280;69667;52.136;5.424;2024-03-02T06:18:29;100130.22;;;6.18;100.00
76694;BME280;69667;52.136;5.424;2024-03-02T06:20:57;100124.88;;;6.18;100.00
76694;BME280;69667;52.136;5.424;2024-03-02T06:23:27;100129.47;;;6.16;100.00
76694;BME280;69667;52.136;5.424;2024-03-02T06:25:54;100136.84;;;6.13;100.00
76694;BME280;69667;52.136;5.424;2024-03-02T06:28:23;100136.97;;;6.11;100.00
76694;BME280;69667;52.136;5.424;2024-03-02T06:30:52;100139.88;;;6.08;100.00
76694;BME280;69667;52.136;5.424;2024-03-02T06:33:22;100147.69;;;6.11;100.00
76694;BME280;69667;52.136;5.424;2024-03-02T06:35:51;100144.78;;;6.14;100.00
76694;BME280;69667;52.136;5.424;2024-03-02T06:38:21;100148.00;;;6.19;100.00
76694;BME280;69667;52.136;5.424;2024-03-02T06:40:49;100143.09;;;6.26;100.00
76694;BME280;69667;52.136;5.424;2024-03-02T06:43:21;100151.66;;;6.31;100.00
76694;BME280;69667;52.136;5.424;2024-03-02T06:45:51;100153.41;;;6.32;100.00
76694;BME280;69667;52.136;5.424;2024-03-02T06:48:21;100155.88;;;6.35;100.00
76694;BME280;69667;52.136;5.424;2024-03-02T06:51:13;100150.19;;;6.39;100.00
76694;BME280;69667;52.136;5.424;2024-03-02T06:53:44;100155.34;;;6.43;100.00
76694;BME280;69667;52.136;5.424;2024-03-02T06:56:14;100143.31;;;6.48;100.00
76694;BME280;69667;52.136;5.424;2024-03-02T06:58:42;100149.66;;;6.60;100.00
76694;BME280;69667;52.136;5.424;2024-03-02T07:01:10;100147.84;;;6.60;100.00
76694;BME280;69667;52.136;5.424;2024-03-02T07:03:39;100156.31;;;6.54;100.00
76694;BME280;69667;52.136;5.424;2024-03-02T07:06:08;100147.63;;;6.51;100.00
76694;BME280;69667;52.136;5.424;2024-03-02T07:08:36;100148.56;;;6.50;100.00
76694;BME280;69667;52.136;5.424;2024-03-02T07:11:04;100153.00;;;6.51;100.00
76694;BME280;69667;52.136;5.424;2024-03-02T07:13:32;100151.16;;;6.51;100.00
76694;BME280;69667;52.136;5.424;2024-03-02T07:16:00;100141.94;;;6.55;100.00
76694;BME280;69667;52.136;5.424;2024-03-02T07:18:32;100138.69;;;6.63;100.00
76694;BME280;69667;52.136;5.424;2024-03-02T07:21:08;100147.41;;;6.79;100.00
76694;BME280;69667;52.136;5.424;2024-03-02T07:23:44;100141.94;;;9.78;100.00
76694;BME280;69667;52.136;5.424;2024-03-02T07:26:27;100127.63;;;13.74;88.07
76694;BME280;69667;52.136;5.424;2024-03-02T07:28:58;100128.09;;;15.76;72.95
76694;BME280;69667;52.136;5.424;2024-03-02T07:31:26;100125.97;;;16.92;64.27
76694;BME280;69667;52.136;5.424;2024-03-02T07:33:55;100122.72;;;18.13;60.82
76694;BME280;69667;52.136;5.424;2024-03-02T07:36:25;100139.16;;;18.05;54.82
76694;BME280;69667;52.136;5.424;2024-03-02T07:38:54;100146.91;;;15.28;56.43
76694;BME280;69667;52.136;5.424;2024-03-02T07:41:23;100159.34;;;12.16;63.59
76694;BME280;69667;52.136;5.424;2024-03-02T07:43:51;100165.56;;;10.58;70.48
76694;BME280;69667;52.136;5.424;2024-03-02T07:46:23;100163.09;;;9.82;75.06
76694;BME280;69667;52.136;5.424;2024-03-02T07:52:09;100166.63;;;8.85;82.86
76694;BME280;69667;52.136;5.424;2024-03-02T07:54:52;100175.16;;;8.68;85.17
76694;BME280;69667;52.136;5.424;2024-03-02T07:57:24;100183.41;;;8.43;86.77
76694;BME280;69667;52.136;5.424;2024-03-02T07:59:52;100174.94;;;8.25;88.64
76694;BME280;69667;52.136;5.424;2024-03-02T08:02:21;100177.63;;;8.25;90.06
76694;BME280;69667;52.136;5.424;2024-03-02T08:04:49;100186.97;;;8.20;90.68
76694;BME280;69667;52.136;5.424;2024-03-02T08:07:18;100199.56;;;8.19;91.60
76694;BME280;69667;52.136;5.424;2024-03-02T08:09:46;100188.19;;;8.16;92.08
76694;BME280;69667;52.136;5.424;2024-03-02T08:12:14;100193.06;;;8.11;92.20
76694;BME280;69667;52.136;5.424;2024-03-02T08:14:43;100200.50;;;8.07;92.36
76694;BME280;69667;52.136;5.424;2024-03-02T08:17:11;100197.53;;;7.99;92.79
76694;BME280;69667;52.136;5.424;2024-03-02T08:19:40;100206.31;;;8.01;93.67
76694;BME280;69667;52.136;5.424;2024-03-02T08:22:08;100203.53;;;8.03;93.66
76694;BME280;69667;52.136;5.424;2024-03-02T08:24:37;100194.50;;;8.04;93.40
76694;BME280;69667;52.136;5.424;2024-03-02T08:27:07;100201.63;;;8.16;93.47
76694;BME280;69667;52.136;5.424;2024-03-02T08:29:48;100191.41;;;8.21;93.70
76694;BME280;69667;52.136;5.424;2024-03-02T08:32:17;100195.38;;;8.28;93.46
76694;BME280;69667;52.136;5.424;2024-03-02T08:34:45;100195.47;;;8.26;92.74
76694;BME280;69667;52.136;5.424;2024-03-02T08:37:13;100193.88;;;8.24;92.84
76694;BME280;69667;52.136;5.424;2024-03-02T08:39:41;100191.28;;;8.22;93.90
76694;BME280;69667;52.136;5.424;2024-03-02T08:42:12;100197.84;;;8.18;94.25
76694;BME280;69667;52.136;5.424;2024-03-02T08:44:41;100192.06;;;8.12;94.12
76694;BME280;69667;52.136;5.424;2024-03-02T08:47:15;100209.81;;;8.14;94.66
76694;BME280;69667;52.136;5.424;2024-03-02T08:49:46;100206.38;;;8.12;94.35
76694;BME280;69667;52.136;5.424;2024-03-02T08:52:14;100197.44;;;8.24;95.12
76694;BME280;69667;52.136;5.424;2024-03-02T08:54:42;100181.00;;;10.67;92.10
76694;BME280;69667;52.136;5.424;2024-03-02T08:57:10;100171.59;;;13.95;77.62
76694;BME280;69667;52.136;5.424;2024-03-02T08:59:39;100163.22;;;17.16;62.26
76694;BME280;69667;52.136;5.424;2024-03-02T09:02:08;100169.53;;;18.40;56.38
76694;BME280;69667;52.136;5.424;2024-03-02T09:04:54;100166.78;;;20.31;49.29
76694;BME280;69667;52.136;5.424;2024-03-02T09:07:24;100170.94;;;20.48;46.05
76694;BME280;69667;52.136;5.424;2024-03-02T09:09:55;100171.78;;;19.63;46.48
76694;BME280;69667;52.136;5.424;2024-03-02T09:12:23;100177.31;;;17.90;48.91
76694;BME280;69667;52.136;5.424;2024-03-02T09:18:13;100162.09;;;18.94;47.65
76694;BME280;69667;52.136;5.424;2024-03-02T09:20:47;100179.56;;;18.70;45.40
76694;BME280;69667;52.136;5.424;2024-03-02T09:23:15;100172.47;;;19.13;42.96
76694;BME280;69667;52.136;5.424;2024-03-02T09:26:07;100169.13;;;20.34;43.53
76694;BME280;69667;52.136;5.424;2024-03-02T09:28:44;100166.41;;;21.93;39.19
76694;BME280;69667;52.136;5.424;2024-03-02T09:31:18;100165.19;;;22.76;36.39
76694;BME280;69667;52.136;5.424;2024-03-02T09:33:46;100166.47;;;22.99;35.33
76694;BME280;69667;52.136;5.424;2024-03-02T09:36:19;100175.94;;;23.75;34.10
76694;BME280;69667;52.136;5.424;2024-03-02T09:38:48;100178.13;;;22.95;33.63
76694;BME280;69667;52.136;5.424;2024-03-02T09:41:16;100174.47;;;21.05;36.27
76694;BME280;69667;52.136;5.424;2024-03-02T09:43:45;100178.22;;;20.77;37.68
76694;BME280;69667;52.136;5.424;2024-03-02T09:46:14;100181.88;;;19.48;38.38
76694;BME280;69667;52.136;5.424;2024-03-02T09:48:46;100195.88;;;17.56;41.89
76694;BME280;69667;52.136;5.424;2024-03-02T09:51:15;100190.34;;;16.45;43.41
76694;BME280;69667;52.136;5.424;2024-03-02T09:56:45;100199.25;;;19.40;39.43
76694;BME280;69667;52.136;5.424;2024-03-02T09:59:13;100185.38;;;20.36;38.50
76694;BME280;69667;52.136;5.424;2024-03-02T10:02:00;100181.28;;;21.71;36.31
76694;BME280;69667;52.136;5.424;2024-03-02T10:04:30;100181.53;;;20.30;38.31
76694;BME280;69667;52.136;5.424;2024-03-02T10:07:25;100188.34;;;18.05;41.00
76694;BME280;69667;52.136;5.424;2024-03-02T10:09:54;100191.78;;;17.60;42.31
76694;BME280;69667;52.136;5.424;2024-03-02T10:12:23;100181.66;;;17.14;44.44
76694;BME280;69667;52.136;5.424;2024-03-02T10:15:13;100177.31;;;18.74;42.58
76694;BME280;69667;52.136;5.424;2024-03-02T10:17:42;100184.22;;;20.66;38.72
76694;BME280;69667;52.136;5.424;2024-03-02T10:20:26;100181.22;;;19.75;38.58
76694;BME280;69667;52.136;5.424;2024-03-02T10:23:15;100180.28;;;18.11;39.90
76694;BME280;69667;52.136;5.424;2024-03-02T10:25:44;100184.78;;;17.96;41.13
76694;BME280;69667;52.136;5.424;2024-03-02T10:28:24;100182.56;;;17.69;41.69
76694;BME280;69667;52.136;5.424;2024-03-02T10:30:55;100189.81;;;17.22;42.55
76694;BME280;69667;52.136;5.424;2024-03-02T10:33:26;100194.41;;;16.41;44.24
76694;BME280;69667;52.136;5.424;2024-03-02T10:36:18;100197.50;;;16.94;44.49
76694;BME280;69667;52.136;5.424;2024-03-02T10:38:47;100175.19;;;18.99;40.20
76694;BME280;69667;52.136;5.424;2024-03-02T10:41:18;100175.66;;;18.12;41.04
76694;BME280;69667;52.136;5.424;2024-03-02T10:43:54;100163.81;;;17.58;43.22
76694;BME280;69667;52.136;5.424;2024-03-02T10:46:29;100150.84;;;21.04;39.98
76694;BME280;69667;52.136;5.424;2024-03-02T10:49:00;100142.94;;;22.77;33.91
76694;BME280;69667;52.136;5.424;2024-03-02T10:51:35;100142.25;;;22.49;33.50
76694;BME280;69667;52.136;5.424;2024-03-02T10:54:05;100145.34;;;22.20;33.46
76694;BME280;69667;52.136;5.424;2024-03-02T10:56:39;100145.94;;;22.09;33.56
76694;BME280;69667;52.136;5.424;2024-03-02T11:01:59;100131.25;;;21.48;33.97
76694;BME280;69667;52.136;5.424;2024-03-02T11:07:28;100141.50;;;18.98;37.52
76694;BME280;69667;52.136;5.424;2024-03-02T11:10:01;100147.28;;;17.90;40.02
76694;BME280;69667;52.136;5.424;2024-03-02T11:13:00;100150.53;;;16.68;42.92
76694;BME280;69667;52.136;5.424;2024-03-02T11:15:59;100154.31;;;15.85;46.03
76694;BME280;69667;52.136;5.424;2024-03-02T11:21:36;100152.09;;;15.47;47.15
76694;BME280;69667;52.136;5.424;2024-03-02T11:27:06;100159.19;;;15.06;46.08
76694;BME280;69667;52.136;5.424;2024-03-02T11:29:55;100155.19;;;14.93;46.73
76694;BME280;69667;52.136;5.424;2024-03-02T11:35:48;100151.09;;;14.46;47.23
76694;BME280;69667;52.136;5.424;2024-03-02T11:38:31;100159.59;;;14.16;48.87
76694;BME280;69667;52.136;5.424;2024-03-02T11:41:10;100147.72;;;13.99;48.40
76694;BME280;69667;52.136;5.424;2024-03-02T11:44:29;100140.06;;;13.94;50.19
76694;BME280;69667;52.136;5.424;2024-03-02T11:47:10;100135.81;;;14.10;49.14
76694;BME280;69667;52.136;5.424;2024-03-02T11:49:41;100135.38;;;14.32;50.42
76694;BME280;69667;52.136;5.424;2024-03-02T11:52:13;100130.38;;;14.10;49.09
76694;BME280;69667;52.136;5.424;2024-03-02T11:54:44;100121.00;;;13.86;49.87
76694;BME280;69667;52.136;5.424;2024-03-02T11:57:18;100132.06;;;14.11;50.17
76694;BME280;69667;52.136;5.424;2024-03-02T11:59:49;100119.97;;;13.87;49.63
76694;BME280;69667;52.136;5.424;2024-03-02T12:02:20;100129.69;;;13.90;49.77
76694;BME280;69667;52.136;5.424;2024-03-02T12:04:49;100116.78;;;13.74;49.08
76694;BME280;69667;52.136;5.424;2024-03-02T12:11:00;100116.91;;;13.55;49.07
76694;BME280;69667;52.136;5.424;2024-03-02T12:13:31;100111.59;;;13.63;48.67
76694;BME280;69667;52.136;5.424;2024-03-02T12:16:01;100102.44;;;13.64;49.75
76694;BME280;69667;52.136;5.424;2024-03-02T12:18:30;100102.56;;;13.90;49.91
76694;BME280;69667;52.136;5.424;2024-03-02T12:20:58;100097.34;;;13.96;50.01
76694;BME280;69667;52.136;5.424;2024-03-02T12:26:22;100093.78;;;13.96;50.37
76694;BME280;69667;52.136;5.424;2024-03-02T12:28:51;100093.53;;;13.89;51.09
76694;BME280;69667;52.136;5.424;2024-03-02T12:31:20;100088.81;;;14.09;50.65
76694;BME280;69667;52.136;5.424;2024-03-02T12:33:48;100090.31;;;14.04;50.67
76694;BME280;69667;52.136;5.424;2024-03-02T12:36:17;100095.72;;;14.04;50.85
76694;BME280;69667;52.136;5.424;2024-03-02T12:38:53;100088.03;;;13.81;50.71
76694;BME280;69667;52.136;5.424;2024-03-02T12:41:22;100097.72;;;13.66;50.98
76694;BME280;69667;52.136;5.424;2024-03-02T12:43:50;100091.50;;;13.56;51.52
76694;BME280;69667;52.136;5.424;2024-03-02T12:46:19;100079.25;;;13.52;51.91
76694;BME280;69667;52.136;5.424;2024-03-02T12:48:47;100072.38;;;13.58;52.27
76694;BME280;69667;52.136;5.424;2024-03-02T12:51:15;100077.00;;;13.48;52.21
76694;BME280;69667;52.136;5.424;2024-03-02T12:53:44;100071.03;;;13.44;53.00
76694;BME280;69667;52.136;5.424;2024-03-02T12:56:19;100068.00;;;13.47;52.42
76694;BME280;69667;52.136;5.424;2024-03-02T12:58:52;100064.34;;;13.39;52.61
76694;BME280;69667;52.136;5.424;2024-03-02T13:01:21;100059.09;;;13.37;52.99
76694;BME280;69667;52.136;5.424;2024-03-02T13:04:15;100062.13;;;13.52;52.58
76694;BME280;69667;52.136;5.424;2024-03-02T13:07:05;100066.38;;;13.37;52.93
76694;BME280;69667;52.136;5.424;2024-03-02T13:09:34;100068.63;;;13.59;52.66
76694;BME280;69667;52.136;5.424;2024-03-02T13:12:03;100056.66;;;13.61;53.00
76694;BME280;69667;52.136;5.424;2024-03-02T13:14:35;100057.28;;;13.73;52.43
76694;BME280;69667;52.136;5.424;2024-03-02T13:17:12;100054.41;;;13.74;52.80
76694;BME280;69667;52.136;5.424;2024-03-02T13:19:58;100055.66;;;13.80;52.83
76694;BME280;69667;52.136;5.424;2024-03-02T13:22:26;100063.75;;;13.62;53.54
76694;BME280;69667;52.136;5.424;2024-03-02T13:25:05;100061.38;;;13.59;53.24
76694;BME280;69667;52.136;5.424;2024-03-02T13:27:38;100063.38;;;13.40;53.09
76694;BME280;69667;52.136;5.424;2024-03-02T13:30:08;100065.13;;;13.31;54.29
76694;BME280;69667;52.136;5.424;2024-03-02T13:32:38;100060.09;;;13.36;53.67
76694;BME280;69667;52.136;5.424;2024-03-02T13:35:06;100057.41;;;13.54;54.52
76694;BME280;69667;52.136;5.424;2024-03-02T13:37:37;100059.41;;;13.52;54.21
76694;BME280;69667;52.136;5.424;2024-03-02T13:40:07;100056.13;;;13.31;54.32
76694;BME280;69667;52.136;5.424;2024-03-02T13:42:49;100063.81;;;12.99;54.80
76694;BME280;69667;52.136;5.424;2024-03-02T13:45:24;100063.22;;;13.14;55.87
76694;BME280;69667;52.136;5.424;2024-03-02T13:47:54;100057.31;;;13.28;55.07
76694;BME280;69667;52.136;5.424;2024-03-02T13:53:56;100042.84;;;13.10;55.61